• Join FlightAware (Why Join?)
  • Login
  • US Flag 
07:06AM EDT


 

Airport Tracker/Info


-or-


 

Live Flight TrackerFlight Track Log ✈ EJA583 ✈ 19-Sep-2013 ✈ KBWD - KCOT

Flight Track Log - Related Links

Times and Time Zones

All times are in EDT time to prevent confusion due to time zone crossing. See the EJA583 flight status page for this flight to view local times or setup timezone preferences in your user account.

Time Position Orientation Groundspeed Altitude Reporting Facility
EDT Latitude Longitude Course Direction KTS MPH feet Rate Location/Type
07:50AM 31.6858 -98.9467 167° South 343 395 6,200  Level Houston Center
07:51AM 31.6350 -98.9328 167° South 226 260 10,300 3,240 Climbing Houston Center
07:52AM 31.5722 -98.9217 171° South 224 258 12,900 2,280 Climbing Houston Center
07:53AM 31.4958 -98.9072 171° South 260 299 15,000 1,980 Climbing Houston Center
07:54AM 31.4108 -98.8928 172° South 294 338 17,000 1,920 Climbing Houston Center
07:55AM 31.3203 -98.8781 172° South 319 367 19,000 1,920 Climbing Houston Center
07:56AM 31.2267 -98.8831 183° South 339 390 21,000 1,860 Climbing Houston Center
07:57AM 31.1367 -98.9050 192° South 332 382 22,900 960 Climbing Houston Center
07:58AM 31.0422 -98.9297 193° South 339 390 23,000  Climbing Houston Center
07:59AM 30.9414 -98.9564 193° South 362 417 23,000  Level Houston Center
08:00AM 30.8400 -98.9811 192° South 367 422 23,000  Level Houston Center
08:01AM 30.7433 -99.0056 192° South 355 409 23,000  Level Houston Center
08:02AM 30.6483 -99.0308 193° South 349 402 23,000  Level Houston Center
08:03AM 30.5531 -99.0547 192° South 347 399 23,000  Level Houston Center
08:04AM 30.4569 -99.0794 193° South 348 400 23,000  Level Houston Center
08:05AM 30.3625 -99.1031 192° South 345 397 23,000  Level Houston Center
08:06AM 30.2731 -99.1264 193° South 347 399 23,000  Level Houston Center
08:07AM 30.1608 -99.1542 192° South 345 397 23,000  Level Houston Center
08:08AM 30.0669 -99.1781 192° South 344 396 23,000  Level Houston Center
08:09AM 29.9722 -99.2014 192° South 345 397 23,000  Level Houston Center
08:10AM 29.8761 -99.2194 189° South 348 400 23,000  Level Houston Center
08:11AM 29.7786 -99.2308 186° South 350 403 23,000  Level Houston Center
08:12AM 29.6719 -99.2433 186° South 353 406 23,100  Climbing Houston Center
08:13AM 29.5739 -99.2556 186° South 353 406 23,100 -180 Level Houston Center
08:14AM 29.4686 -99.2681 186° South 353 406 22,800 -900 Descending Houston Center
08:15AM 29.3706 -99.2789 185° South 355 409 21,300 -1,680 Descending Houston Center
08:16AM 29.2717 -99.2911 186° South 356 410 19,400 -1,920 Descending Houston Center
08:17AM 29.1628 -99.3044 186° South 361 415 17,400 -2,100 Descending Houston Center
08:18AM 29.0639 -99.3147 185° South 358 412 15,100 -2,400 Descending Houston Center
08:19AM 28.9664 -99.3281 187° South 359 413 12,600 -2,400 Descending Houston Center
08:20AM 28.8803 -99.3386 186° South 328 377 10,200 -2,340 Descending Houston Center
08:21AM 28.8039 -99.3447 184° South 289 333 7,900 -2,220 Descending Houston Center
08:22AM 28.7344 -99.3533 186° South 263 303 5,700 -2,220 Descending Houston Center
08:23AM 28.6656 -99.3617 186° South 253 291 3,400 -1,320 Descending Houston Center
08:24AM 28.6072 -99.3664 184° South 231 266 3,000 -360 Descending Houston Center
08:25AM 28.5728 -99.4094 228° Southwest 228 262 2,700 -360 Descending Houston Center
08:26AM 28.6058 -99.4558 309° West 206 237 2,300 -240 Descending Houston Center
08:27AM 28.6467 -99.4758 337° Northwest 193 222 2,300  Level Houston Center
08:28AM 28.6450 -99.4339 93° East 174 200 2,300  Level Houston Center
08:29AM 28.6136 -99.3958 133° Southeast 169 194 2,300 -120 Level Houston Center
08:31AM 28.5800 -99.3567 134° Southeast 168 193 2,100 -120 Descending Houston Center
08:32AM 28.5467 -99.3181 134° Southeast 170 196 2,100 -180 Level Houston Center
08:33AM 28.5119 -99.2778 134° Southeast 160 184 1,800 -480 Descending Houston Center
08:34AM 28.4892 -99.2486 132° Southeast 151 174 1,200 -600 Descending Houston Center
08:36AM 28.4500 -99.2167 127° Southeast  Level FlightAware Approximate
08:43AM 28.4567 -99.2183 127° Southeast  Level Estimated
08:44AM 28.4500 -99.2167 127° Southeast  Level FlightAware Approximate